Priwall — V2OX8 — position and weather

sailwx.info

Track history (hours):
 
Tides and Currents Weather Stations Pressure Air Temp Water Temp Dewpoint Dewpoint Depression Visibility Wind Speed Wind Dir Waves Ship Positions

Priwall

Last reported at 2016-Aug-26 07:13 UTC. Time now 2016-Aug-26 13:46 UTC.
Position N 50°54' W 001°26'.

Length 88 m; draft 5.5 m.

Type: Ship. MMSI: 304739000.

Date/timePositionNaut miles runAvg speedWind from/ knotsBaromVisibWave heightAir tempDewpointWater temp
2016-Aug-26 07:13N 50°54' W 001°26'0 0.0
2016-Aug-25 15:33N 50°54' W 001°26'9 8.8
2016-Aug-25 14:33N 50°48' W 001°16'9 9.0
2016-Aug-25 13:33N 50°44' W 001°04'9 8.9
2016-Aug-25 12:33N 50°40' W 000°51'7 7.5
2016-Aug-25 11:33N 50°38' W 000°40'8 7.8
2016-Aug-25 10:33N 50°35' W 000°28'8 8.1
2016-Aug-25 09:33N 50°33' W 000°16'8 7.9
2016-Aug-25 08:33N 50°32' W 000°04'8 8.3
2016-Aug-25 07:33N 50°34' E 000°09'1110.0
2016-Aug-25 06:28N 50°37' E 000°26'20 8.3
2016-Aug-25 04:05N 50°47' E 000°52'4 7.6
2016-Aug-25 03:33N 50°49' E 000°58'8 7.8
2016-Aug-25 02:31N 50°54' E 001°08'8 8.1
2016-Aug-25 01:32N 50°59' E 001°17'1010.5
2016-Aug-25 00:33N 51°06' E 001°30'1110.5
2016-Aug-24 23:33N 51°15' E 001°37'1010.2
2016-Aug-24 22:33N 51°25' E 001°31'9 9.5
2016-Aug-24 21:33N 51°29' E 001°17'1010.4
2016-Aug-24 20:33N 51°29' E 000°60'1211.9
2016-Aug-24 19:33N 51°30' E 000°41'1111.1
2016-Aug-24 18:33N 51°27' E 000°24'9 8.7
2016-Aug-24 17:33N 51°30' E 000°11'3 2.9
2016-Aug-24 16:32N 51°31' E 000°06'0 0.0
2016-Aug-24 15:29N 51°31' E 000°06'0 0.0
2016-Aug-24 14:29N 51°31' E 000°06'0 0.0
2016-Aug-24 13:26N 51°31' E 000°06'0 0.0
2016-Aug-24 12:32N 51°31' E 000°06'0 0.0
2016-Aug-24 11:32N 51°31' E 000°06'0 0.0
2016-Aug-24 10:29N 51°31' E 000°06'0 0.0
2016-Aug-24 09:29N 51°31' E 000°06'0 0.0
2016-Aug-24 08:32N 51°31' E 000°06'0 0.0
2016-Aug-24 07:32N 51°31' E 000°06'0 0.0
2016-Aug-24 06:29N 51°31' E 000°06'0 0.0
2016-Aug-24 04:32N 51°31' E 000°06'0 0.0
2016-Aug-24 03:29N 51°31' E 000°06'0 0.0
2016-Aug-24 02:32N 51°31' E 000°06'0 0.0
2016-Aug-24 01:32N 51°31' E 000°06'0 0.0
2016-Aug-24 00:32N 51°31' E 000°06'0 0.0
2016-Aug-23 23:29N 51°31' E 000°06'0 0.0
2016-Aug-23 22:32N 51°31' E 000°06'0 0.0
2016-Aug-23 21:32N 51°31' E 000°06'0 0.0
2016-Aug-23 20:29N 51°31' E 000°06'0 0.0
2016-Aug-23 19:32N 51°31' E 000°06'0 0.0
2016-Aug-23 18:29N 51°31' E 000°06'0 0.0
2016-Aug-23 17:32N 51°31' E 000°06'0 0.0
2016-Aug-23 16:32N 51°31' E 000°06'0 0.0
2016-Aug-23 15:29N 51°31' E 000°06'0 0.0
2016-Aug-23 14:29N 51°31' E 000°06'0 0.0
2016-Aug-23 13:29N 51°31' E 000°06'0 0.0
2016-Aug-23 12:23N 51°31' E 000°06'0 0.0
2016-Aug-23 11:32N 51°31' E 000°06'0 0.0
2016-Aug-23 10:29N 51°31' E 000°06'0 0.0
2016-Aug-23 09:32N 51°31' E 000°06'0 0.0
2016-Aug-23 08:32N 51°31' E 000°06'0 0.0
2016-Aug-23 07:26N 51°31' E 000°06'0 0.0
2016-Aug-23 06:23N 51°31' E 000°06'0 0.0
2016-Aug-23 04:26N 51°31' E 000°06'0 0.0
2016-Aug-23 03:32N 51°31' E 000°06'0 0.0
2016-Aug-23 02:29N 51°31' E 000°06'0 0.0
2016-Aug-23 01:32N 51°31' E 000°06'0 0.0
2016-Aug-23 00:32N 51°31' E 000°06'0 0.0
2016-Aug-22 23:32N 51°31' E 000°06'0 0.0
2016-Aug-22 22:32N 51°31' E 000°06'0 0.0
2016-Aug-22 21:32N 51°31' E 000°06'0 0.0
2016-Aug-22 20:29N 51°31' E 000°06'0 0.0
2016-Aug-22 19:32N 51°31' E 000°06'0 0.0
2016-Aug-22 18:29N 51°31' E 000°06'0 0.0
2016-Aug-22 17:29N 51°31' E 000°06'0 0.0
2016-Aug-22 16:32N 51°31' E 000°06'0 0.0
2016-Aug-22 15:32N 51°31' E 000°06'0 0.0
2016-Aug-22 14:32N 51°31' E 000°06'0 0.0
2016-Aug-22 13:32N 51°31' E 000°06'0 0.0
2016-Aug-22 12:32N 51°31' E 000°06'0 0.0
2016-Aug-22 11:32N 51°31' E 000°06'0 0.0
2016-Aug-22 10:32N 51°31' E 000°06'0 0.0
2016-Aug-22 09:32N 51°31' E 000°06'0 0.0
2016-Aug-22 08:32N 51°31' E 000°06'0 0.0
2016-Aug-22 07:26N 51°31' E 000°06'0 0.0
2016-Aug-22 06:32N 51°31' E 000°06'0 0.0
2016-Aug-22 05:32N 51°31' E 000°06'0 0.0
2016-Aug-22 04:32N 51°31' E 000°06'0 0.0
2016-Aug-22 03:32N 51°31' E 000°06'0 0.0
2016-Aug-22 02:32N 51°31' E 000°06'0 0.0
2016-Aug-22 01:32N 51°31' E 000°06'0 0.0
2016-Aug-22 00:29N 51°31' E 000°06'0 0.0
2016-Aug-21 23:29N 51°31' E 000°06'0 0.0
2016-Aug-21 22:29N 51°31' E 000°06'0 0.0
2016-Aug-21 21:32N 51°31' E 000°06'0 0.0
2016-Aug-21 20:32N 51°31' E 000°06'0 0.0
2016-Aug-21 19:32N 51°31' E 000°06'0 0.0
2016-Aug-21 18:26N 51°31' E 000°06'0 0.0
2016-Aug-21 17:29N 51°31' E 000°06'0 0.0
2016-Aug-21 16:23N 51°31' E 000°06'3 3.6
2016-Aug-21 15:33N 51°30' E 000°10'0 0.0
2016-Aug-21 14:27N 51°30' E 000°10'0 0.0
2016-Aug-21 13:33N 51°30' E 000°10'0 0.0
2016-Aug-21 12:33N 51°30' E 000°10'0 0.0
2016-Aug-21 11:30N 51°30' E 000°10'0 0.0
2016-Aug-21 10:33N 51°30' E 000°10'0 0.0
2016-Aug-21 09:27N 51°30' E 000°10'0 0.0
2016-Aug-21 08:33N 51°30' E 000°10'0 0.0
2016-Aug-21 07:33N 51°30' E 000°10'0 0.0
2016-Aug-21 06:33N 51°30' E 000°10'0 0.0
2016-Aug-21 05:33N 51°30' E 000°10'0 0.0
2016-Aug-21 04:33N 51°30' E 000°10'0 0.0
2016-Aug-21 03:33N 51°30' E 000°10'0 0.0
2016-Aug-21 02:30N 51°30' E 000°10'0 0.0
2016-Aug-21 01:33N 51°30' E 000°10'0 0.0
2016-Aug-21 00:33N 51°30' E 000°10'0 0.0
2016-Aug-20 23:33N 51°30' E 000°10'3 3.5
2016-Aug-20 22:33N 51°28' E 000°15'7 7.2
2016-Aug-20 21:34N 51°28' E 000°27'7 6.9
2016-Aug-20 20:33N 51°30' E 000°38'8 7.7
2016-Aug-20 19:33N 51°30' E 000°50'7 1.2
2016-Aug-20 14:13N 51°31' E 001°00'0 0.2
2016-Aug-20 13:19N 51°31' E 001°00'0 0.1
2016-Aug-20 12:31N 51°31' E 001°00'0 0.0
2016-Aug-20 11:31N 51°31' E 001°00'0 0.0
2016-Aug-20 10:31N 51°31' E 001°00'0 0.0
2016-Aug-20 09:31N 51°31' E 001°00'0 0.2
2016-Aug-20 08:19N 51°31' E 001°00'0 0.0
2016-Aug-20 06:19N 51°31' E 001°00'0 0.0
2016-Aug-20 04:07N 51°31' E 001°00'0 0.0
2016-Aug-20 02:31N 51°31' E 001°00'0 0.1
2016-Aug-20 01:31N 51°31' E 001°00'0 0.0
2016-Aug-19 23:31N 51°31' E 001°00'0 0.0
2016-Aug-19 22:31N 51°31' E 001°00'0 0.0
2016-Aug-19 21:25N 51°31' E 001°00'0 0.1
2016-Aug-19 20:31N 51°31' E 001°00'0 0.1
2016-Aug-19 19:13N 51°31' E 001°00'0 0.0
2016-Aug-19 11:25N 51°31' E 001°00'0 0.0
2016-Aug-19 10:31N 51°31' E 001°00'0 0.0
2016-Aug-19 09:13N 51°31' E 001°00'0 0.0
2016-Aug-19 08:25N 51°31' E 001°00'0 0.1
2016-Aug-19 07:31N 51°31' E 001°00'0 0.0
2016-Aug-19 04:25N 51°31' E 001°00'0 0.0
2016-Aug-19 03:31N 51°31' E 001°00'0 0.0
2016-Aug-19 02:25N 51°31' E 001°00'0 0.1
2016-Aug-19 01:31N 51°31' E 001°00'0 0.1
2016-Aug-19 00:31N 51°31' E 000°60'0 0.0
2016-Aug-18 23:31N 51°31' E 000°60'0 0.0
2016-Aug-18 22:31N 51°31' E 000°60'0 0.1
2016-Aug-18 21:31N 51°31' E 001°00'0 0.0
2016-Aug-18 20:31N 51°31' E 001°00'0 0.0
2016-Aug-18 18:13N 51°31' E 001°00'0 0.0
2016-Aug-18 14:13N 51°31' E 001°00'0 0.1
2016-Aug-18 13:25N 51°31' E 001°00'0 0.1
2016-Aug-18 12:31N 51°31' E 000°60'0 0.0
2016-Aug-18 11:31N 51°31' E 000°60'0 0.0
2016-Aug-18 10:19N 51°31' E 000°60'0 0.0
2016-Aug-18 07:31N 51°31' E 001°00'0 0.0
2016-Aug-18 04:07N 51°31' E 001°00'0 0.0
2016-Aug-18 03:13N 51°31' E 001°00'0 0.0
2016-Aug-18 02:31N 51°31' E 001°00'0 0.0
2016-Aug-18 01:31N 51°31' E 001°00'0 0.1
2016-Aug-18 00:07N 51°31' E 001°00'0 0.0
2016-Aug-17 23:31N 51°31' E 000°60'0 0.0
2016-Aug-17 22:31N 51°31' E 000°60'0 0.0
2016-Aug-17 21:31N 51°31' E 001°00'0 0.0
2016-Aug-17 19:31N 51°31' E 001°00'0 0.0
2016-Aug-17 18:25N 51°31' E 001°00'0 0.3
2016-Aug-17 17:14N 51°31' E 001°01'5 7.4
2016-Aug-17 16:33N 51°34' E 001°07'8 8.3
2016-Aug-17 15:33N 51°40' E 001°17'8 8.0
2016-Aug-17 14:33N 51°45' E 001°26'7 7.4
2016-Aug-17 13:33N 51°50' E 001°36'8 7.8
2016-Aug-17 12:34N 51°55' E 001°45'7 7.4
2016-Aug-17 11:33N 52°02' E 001°47'8 8.0
2016-Aug-17 10:33N 52°10' E 001°49'32 9.6
2016-Aug-17 07:16N 52°42' E 001°48'810.6
2016-Aug-17 06:33N 52°48' E 001°41'1110.6
2016-Aug-17 05:34N 52°56' E 001°29'1111.1
2016-Aug-17 04:33N 53°01' E 001°12'10 9.9
2016-Aug-17 03:33N 53°06' E 000°58'10 9.8
2016-Aug-17 02:33N 53°13' E 000°46'19 9.6
2016-Aug-17 00:33N 53°27' E 000°26'6 6.5
2016-Aug-16 23:33N 53°31' E 000°17'9 8.9
2016-Aug-16 22:33N 53°35' E 000°03'9 9.1
2016-Aug-16 21:33N 53°38' W 000°11'0 0.2
2016-Aug-16 20:33N 53°38' W 000°12'0 0.0
2016-Aug-16 19:33N 53°38' W 000°12'0 0.0
2016-Aug-16 18:30N 53°38' W 000°12'0 0.0
2016-Aug-16 17:33N 53°38' W 000°12'0 0.0
2016-Aug-16 16:33N 53°38' W 000°12'0 0.0
2016-Aug-16 15:33N 53°38' W 000°12'0 0.0
2016-Aug-16 14:33N 53°38' W 000°12'0 0.0
2016-Aug-16 13:33N 53°38' W 000°12'0 0.0
2016-Aug-16 12:33N 53°38' W 000°12'0 0.0
2016-Aug-16 11:30N 53°38' W 000°12'0 0.0
2016-Aug-16 10:33N 53°38' W 000°12'0 0.0
2016-Aug-16 09:33N 53°38' W 000°12'0 0.0
2016-Aug-16 08:33N 53°38' W 000°12'0 0.0
2016-Aug-16 07:33N 53°38' W 000°12'  
Track history (hours):
 
Tides and Currents Weather Stations Pressure Air Temp Water Temp Dewpoint Dewpoint Depression Visibility Wind Speed Wind Dir Waves Ship Positions

Priwall

Last reported at 2016-Aug-26 07:13 UTC. Time now 2016-Aug-26 13:46 UTC.
Position N 50°54' W 001°26'.

Length 88 m; draft 5.5 m.

Type: Ship. MMSI: 304739000.

Date/timePositionNaut miles runAvg speedWind from/ knotsBaromVisibWave heightAir tempDewpointWater temp
2016-Aug-26 07:13N 50°54' W 001°26'0 0.0
2016-Aug-25 15:33N 50°54' W 001°26'9 8.8
2016-Aug-25 14:33N 50°48' W 001°16'9 9.0
2016-Aug-25 13:33N 50°44' W 001°04'9 8.9
2016-Aug-25 12:33N 50°40' W 000°51'7 7.5
2016-Aug-25 11:33N 50°38' W 000°40'8 7.8
2016-Aug-25 10:33N 50°35' W 000°28'8 8.1
2016-Aug-25 09:33N 50°33' W 000°16'8 7.9
2016-Aug-25 08:33N 50°32' W 000°04'8 8.3
2016-Aug-25 07:33N 50°34' E 000°09'1110.0
2016-Aug-25 06:28N 50°37' E 000°26'20 8.3
2016-Aug-25 04:05N 50°47' E 000°52'4 7.6
2016-Aug-25 03:33N 50°49' E 000°58'8 7.8
2016-Aug-25 02:31N 50°54' E 001°08'8 8.1
2016-Aug-25 01:32N 50°59' E 001°17'1010.5
2016-Aug-25 00:33N 51°06' E 001°30'1110.5
2016-Aug-24 23:33N 51°15' E 001°37'1010.2
2016-Aug-24 22:33N 51°25' E 001°31'9 9.5
2016-Aug-24 21:33N 51°29' E 001°17'1010.4
2016-Aug-24 20:33N 51°29' E 000°60'1211.9
2016-Aug-24 19:33N 51°30' E 000°41'1111.1
2016-Aug-24 18:33N 51°27' E 000°24'9 8.7
2016-Aug-24 17:33N 51°30' E 000°11'3 2.9
2016-Aug-24 16:32N 51°31' E 000°06'0 0.0
2016-Aug-24 15:29N 51°31' E 000°06'0 0.0
2016-Aug-24 14:29N 51°31' E 000°06'0 0.0
2016-Aug-24 13:26N 51°31' E 000°06'0 0.0
2016-Aug-24 12:32N 51°31' E 000°06'0 0.0
2016-Aug-24 11:32N 51°31' E 000°06'0 0.0
2016-Aug-24 10:29N 51°31' E 000°06'0 0.0
2016-Aug-24 09:29N 51°31' E 000°06'0 0.0
2016-Aug-24 08:32N 51°31' E 000°06'0 0.0
2016-Aug-24 07:32N 51°31' E 000°06'0 0.0
2016-Aug-24 06:29N 51°31' E 000°06'0 0.0
2016-Aug-24 04:32N 51°31' E 000°06'0 0.0
2016-Aug-24 03:29N 51°31' E 000°06'0 0.0
2016-Aug-24 02:32N 51°31' E 000°06'0 0.0
2016-Aug-24 01:32N 51°31' E 000°06'0 0.0
2016-Aug-24 00:32N 51°31' E 000°06'0 0.0
2016-Aug-23 23:29N 51°31' E 000°06'0 0.0
2016-Aug-23 22:32N 51°31' E 000°06'0 0.0
2016-Aug-23 21:32N 51°31' E 000°06'0 0.0
2016-Aug-23 20:29N 51°31' E 000°06'0 0.0
2016-Aug-23 19:32N 51°31' E 000°06'0 0.0
2016-Aug-23 18:29N 51°31' E 000°06'0 0.0
2016-Aug-23 17:32N 51°31' E 000°06'0 0.0
2016-Aug-23 16:32N 51°31' E 000°06'0 0.0
2016-Aug-23 15:29N 51°31' E 000°06'0 0.0
2016-Aug-23 14:29N 51°31' E 000°06'0 0.0
2016-Aug-23 13:29N 51°31' E 000°06'0 0.0
2016-Aug-23 12:23N 51°31' E 000°06'0 0.0
2016-Aug-23 11:32N 51°31' E 000°06'0 0.0
2016-Aug-23 10:29N 51°31' E 000°06'0 0.0
2016-Aug-23 09:32N 51°31' E 000°06'0 0.0
2016-Aug-23 08:32N 51°31' E 000°06'0 0.0
2016-Aug-23 07:26N 51°31' E 000°06'0 0.0
2016-Aug-23 06:23N 51°31' E 000°06'0 0.0
2016-Aug-23 04:26N 51°31' E 000°06'0 0.0
2016-Aug-23 03:32N 51°31' E 000°06'0 0.0
2016-Aug-23 02:29N 51°31' E 000°06'0 0.0
2016-Aug-23 01:32N 51°31' E 000°06'0 0.0
2016-Aug-23 00:32N 51°31' E 000°06'0 0.0
2016-Aug-22 23:32N 51°31' E 000°06'0 0.0
2016-Aug-22 22:32N 51°31' E 000°06'0 0.0
2016-Aug-22 21:32N 51°31' E 000°06'0 0.0
2016-Aug-22 20:29N 51°31' E 000°06'0 0.0
2016-Aug-22 19:32N 51°31' E 000°06'0 0.0
2016-Aug-22 18:29N 51°31' E 000°06'0 0.0
2016-Aug-22 17:29N 51°31' E 000°06'0 0.0
2016-Aug-22 16:32N 51°31' E 000°06'0 0.0
2016-Aug-22 15:32N 51°31' E 000°06'0 0.0
2016-Aug-22 14:32N 51°31' E 000°06'0 0.0
2016-Aug-22 13:32N 51°31' E 000°06'0 0.0
2016-Aug-22 12:32N 51°31' E 000°06'0 0.0
2016-Aug-22 11:32N 51°31' E 000°06'0 0.0
2016-Aug-22 10:32N 51°31' E 000°06'0 0.0
2016-Aug-22 09:32N 51°31' E 000°06'0 0.0
2016-Aug-22 08:32N 51°31' E 000°06'0 0.0
2016-Aug-22 07:26N 51°31' E 000°06'0 0.0
2016-Aug-22 06:32N 51°31' E 000°06'0 0.0
2016-Aug-22 05:32N 51°31' E 000°06'0 0.0
2016-Aug-22 04:32N 51°31' E 000°06'0 0.0
2016-Aug-22 03:32N 51°31' E 000°06'0 0.0
2016-Aug-22 02:32N 51°31' E 000°06'0 0.0
2016-Aug-22 01:32N 51°31' E 000°06'0 0.0
2016-Aug-22 00:29N 51°31' E 000°06'0 0.0
2016-Aug-21 23:29N 51°31' E 000°06'0 0.0
2016-Aug-21 22:29N 51°31' E 000°06'0 0.0
2016-Aug-21 21:32N 51°31' E 000°06'0 0.0
2016-Aug-21 20:32N 51°31' E 000°06'0 0.0
2016-Aug-21 19:32N 51°31' E 000°06'0 0.0
2016-Aug-21 18:26N 51°31' E 000°06'0 0.0
2016-Aug-21 17:29N 51°31' E 000°06'0 0.0
2016-Aug-21 16:23N 51°31' E 000°06'3 3.6
2016-Aug-21 15:33N 51°30' E 000°10'0 0.0
2016-Aug-21 14:27N 51°30' E 000°10'0 0.0
2016-Aug-21 13:33N 51°30' E 000°10'0 0.0
2016-Aug-21 12:33N 51°30' E 000°10'0 0.0
2016-Aug-21 11:30N 51°30' E 000°10'0 0.0
2016-Aug-21 10:33N 51°30' E 000°10'0 0.0
2016-Aug-21 09:27N 51°30' E 000°10'0 0.0
2016-Aug-21 08:33N 51°30' E 000°10'0 0.0
2016-Aug-21 07:33N 51°30' E 000°10'0 0.0
2016-Aug-21 06:33N 51°30' E 000°10'0 0.0
2016-Aug-21 05:33N 51°30' E 000°10'0 0.0
2016-Aug-21 04:33N 51°30' E 000°10'0 0.0
2016-Aug-21 03:33N 51°30' E 000°10'0 0.0
2016-Aug-21 02:30N 51°30' E 000°10'0 0.0
2016-Aug-21 01:33N 51°30' E 000°10'0 0.0
2016-Aug-21 00:33N 51°30' E 000°10'0 0.0
2016-Aug-20 23:33N 51°30' E 000°10'3 3.5
2016-Aug-20 22:33N 51°28' E 000°15'7 7.2
2016-Aug-20 21:34N 51°28' E 000°27'7 6.9
2016-Aug-20 20:33N 51°30' E 000°38'8 7.7
2016-Aug-20 19:33N 51°30' E 000°50'7 1.2
2016-Aug-20 14:13N 51°31' E 001°00'0 0.2
2016-Aug-20 13:19N 51°31' E 001°00'0 0.1
2016-Aug-20 12:31N 51°31' E 001°00'0 0.0
2016-Aug-20 11:31N 51°31' E 001°00'0 0.0
2016-Aug-20 10:31N 51°31' E 001°00'0 0.0
2016-Aug-20 09:31N 51°31' E 001°00'0 0.2
2016-Aug-20 08:19N 51°31' E 001°00'0 0.0
2016-Aug-20 06:19N 51°31' E 001°00'0 0.0
2016-Aug-20 04:07N 51°31' E 001°00'0 0.0
2016-Aug-20 02:31N 51°31' E 001°00'0 0.1
2016-Aug-20 01:31N 51°31' E 001°00'0 0.0
2016-Aug-19 23:31N 51°31' E 001°00'0 0.0
2016-Aug-19 22:31N 51°31' E 001°00'0 0.0
2016-Aug-19 21:25N 51°31' E 001°00'0 0.1
2016-Aug-19 20:31N 51°31' E 001°00'0 0.1
2016-Aug-19 19:13N 51°31' E 001°00'0 0.0
2016-Aug-19 11:25N 51°31' E 001°00'0 0.0
2016-Aug-19 10:31N 51°31' E 001°00'0 0.0
2016-Aug-19 09:13N 51°31' E 001°00'0 0.0
2016-Aug-19 08:25N 51°31' E 001°00'0 0.1
2016-Aug-19 07:31N 51°31' E 001°00'0 0.0
2016-Aug-19 04:25N 51°31' E 001°00'0 0.0
2016-Aug-19 03:31N 51°31' E 001°00'0 0.0
2016-Aug-19 02:25N 51°31' E 001°00'0 0.1
2016-Aug-19 01:31N 51°31' E 001°00'0 0.1
2016-Aug-19 00:31N 51°31' E 000°60'0 0.0
2016-Aug-18 23:31N 51°31' E 000°60'0 0.0
2016-Aug-18 22:31N 51°31' E 000°60'0 0.1
2016-Aug-18 21:31N 51°31' E 001°00'0 0.0
2016-Aug-18 20:31N 51°31' E 001°00'0 0.0
2016-Aug-18 18:13N 51°31' E 001°00'0 0.0
2016-Aug-18 14:13N 51°31' E 001°00'0 0.1
2016-Aug-18 13:25N 51°31' E 001°00'0 0.1
2016-Aug-18 12:31N 51°31' E 000°60'0 0.0
2016-Aug-18 11:31N 51°31' E 000°60'0 0.0
2016-Aug-18 10:19N 51°31' E 000°60'0 0.0
2016-Aug-18 07:31N 51°31' E 001°00'0 0.0
2016-Aug-18 04:07N 51°31' E 001°00'0 0.0
2016-Aug-18 03:13N 51°31' E 001°00'0 0.0
2016-Aug-18 02:31N 51°31' E 001°00'0 0.0
2016-Aug-18 01:31N 51°31' E 001°00'0 0.1
2016-Aug-18 00:07N 51°31' E 001°00'0 0.0
2016-Aug-17 23:31N 51°31' E 000°60'0 0.0
2016-Aug-17 22:31N 51°31' E 000°60'0 0.0
2016-Aug-17 21:31N 51°31' E 001°00'0 0.0
2016-Aug-17 19:31N 51°31' E 001°00'0 0.0
2016-Aug-17 18:25N 51°31' E 001°00'0 0.3
2016-Aug-17 17:14N 51°31' E 001°01'5 7.4
2016-Aug-17 16:33N 51°34' E 001°07'8 8.3
2016-Aug-17 15:33N 51°40' E 001°17'8 8.0
2016-Aug-17 14:33N 51°45' E 001°26'7 7.4
2016-Aug-17 13:33N 51°50' E 001°36'8 7.8
2016-Aug-17 12:34N 51°55' E 001°45'7 7.4
2016-Aug-17 11:33N 52°02' E 001°47'8 8.0
2016-Aug-17 10:33N 52°10' E 001°49'32 9.6
2016-Aug-17 07:16N 52°42' E 001°48'810.6
2016-Aug-17 06:33N 52°48' E 001°41'1110.6
2016-Aug-17 05:34N 52°56' E 001°29'1111.1
2016-Aug-17 04:33N 53°01' E 001°12'10 9.9
2016-Aug-17 03:33N 53°06' E 000°58'10 9.8
2016-Aug-17 02:33N 53°13' E 000°46'19 9.6
2016-Aug-17 00:33N 53°27' E 000°26'6 6.5
2016-Aug-16 23:33N 53°31' E 000°17'9 8.9
2016-Aug-16 22:33N 53°35' E 000°03'9 9.1
2016-Aug-16 21:33N 53°38' W 000°11'0 0.2
2016-Aug-16 20:33N 53°38' W 000°12'0 0.0
2016-Aug-16 19:33N 53°38' W 000°12'0 0.0
2016-Aug-16 18:30N 53°38' W 000°12'0 0.0
2016-Aug-16 17:33N 53°38' W 000°12'0 0.0
2016-Aug-16 16:33N 53°38' W 000°12'0 0.0
2016-Aug-16 15:33N 53°38' W 000°12'0 0.0
2016-Aug-16 14:33N 53°38' W 000°12'0 0.0
2016-Aug-16 13:33N 53°38' W 000°12'0 0.0
2016-Aug-16 12:33N 53°38' W 000°12'0 0.0
2016-Aug-16 11:30N 53°38' W 000°12'0 0.0
2016-Aug-16 10:33N 53°38' W 000°12'0 0.0
2016-Aug-16 09:33N 53°38' W 000°12'0 0.0
2016-Aug-16 08:33N 53°38' W 000°12'0 0.0
2016-Aug-16 07:33N 53°38' W 000°12'  

Dump ship's entire track history